Time;durP1;ratioP1;P1;durP2;ratioP2;P2;SDS_P1;SDS_P2;PMS_P1;PMS_P2;Temp;Humidity;BMP_temperature;BMP_pressure;BME280_temperature;BME280_humidity;BME280_pressure;Samples;Min_cycle;Max_cycle;Signal;HPM_P1;HPM_P2
2023/01/21 00:02:10;;;;;;;53.38;33.83;;;;;;;;;;5038634;28;20480;-67
2023/01/21 00:04:39;;;;;;;54.10;33.35;;;;;;;;;;5040643;28;20509;-66
2023/01/21 00:07:05;;;;;;;57.58;35.30;;;;;;;;;;5040366;28;20459;-67
2023/01/21 00:09:32;;;;;;;65.18;40.92;;;;;;;;;;5040097;28;20029;-63
2023/01/21 00:12:01;;;;;;;65.78;39.92;;;;;;;;;;5039944;28;20017;-65
2023/01/21 00:14:28;;;;;;;52.55;37.35;;;;;;;;;;5040517;28;20105;-67
2023/01/21 00:16:54;;;;;;;52.95;36.15;;;;;;;;;;5038541;28;20021;-66
2023/01/21 00:19:20;;;;;;;57.08;36.97;;;;;;;;;;5039664;28;20067;-66
2023/01/21 00:21:46;;;;;;;62.25;38.33;;;;;;;;;;5040056;28;20491;-65
2023/01/21 00:24:12;;;;;;;60.40;38.47;;;;;;;;;;5038101;28;20510;-66
2023/01/21 00:26:38;;;;;;;66.43;40.20;;;;;;;;;;5044245;28;20115;-65
2023/01/21 00:29:04;;;;;;;65.43;40.20;;;;;;;;;;5049968;28;20435;-66
2023/01/21 00:31:30;;;;;;;61.00;38.63;;;;;;;;;;5050479;28;20021;-63
2023/01/21 00:33:56;;;;;;;65.85;39.00;;;;;;;;;;5050797;28;20033;-66
2023/01/21 00:36:28;;;;;;;65.28;39.88;;;;;;;;;;5050905;28;20108;-65
2023/01/21 00:38:54;;;;;;;59.50;36.63;;;;;;;;;;5047049;28;20361;-62
2023/01/21 00:41:20;;;;;;;68.20;41.47;;;;;;;;;;5043433;28;20468;-64
2023/01/21 00:43:46;;;;;;;61.72;42.10;;;;;;;;;;5050719;28;20550;-66
2023/01/21 00:46:12;;;;;;;75.00;43.63;;;;;;;;;;5050447;28;20025;-65
2023/01/21 00:48:39;;;;;;;74.63;43.88;;;;;;;;;;5050557;28;20033;-64
2023/01/21 00:51:05;;;;;;;61.60;40.05;;;;;;;;;;5050857;28;20025;-62
2023/01/21 00:53:33;;;;;;;65.30;39.50;;;;;;;;;;5050482;28;20033;-63
2023/01/21 00:56:00;;;;;;;58.13;36.72;;;;;;;;;;5050356;28;20021;-63
2023/01/21 00:58:26;;;;;;;50.80;32.85;;;;;;;;;;5050571;28;20021;-64
2023/01/21 01:01:02;;;;;;;50.60;32.22;;;;;;;;;;5050069;28;20021;-63
2023/01/21 01:03:29;;;;;;;66.82;40.88;;;;;;;;;;5050611;28;20119;-64
2023/01/21 01:05:55;;;;;;;63.63;38.70;;;;;;;;;;5050519;28;20021;-63
2023/01/21 01:08:21;;;;;;;67.25;39.72;;;;;;;;;;5050217;28;20044;-63
2023/01/21 01:10:47;;;;;;;50.67;33.92;;;;;;;;;;5050156;28;20064;-64
2023/01/21 01:13:13;;;;;;;64.25;37.78;;;;;;;;;;5050253;28;20029;-63
2023/01/21 01:15:39;;;;;;;65.75;41.47;;;;;;;;;;5050235;28;20055;-64
2023/01/21 01:18:05;;;;;;;60.85;35.08;;;;;;;;;;5050501;28;20028;-66
2023/01/21 01:20:31;;;;;;;61.78;37.25;;;;;;;;;;5050192;28;20033;-63
2023/01/21 01:22:57;;;;;;;66.80;39.45;;;;;;;;;;5050426;28;20032;-66
2023/01/21 01:25:23;;;;;;;52.63;34.58;;;;;;;;;;5050440;28;20028;-66
2023/01/21 01:27:49;;;;;;;70.93;40.90;;;;;;;;;;5050109;28;20031;-63
2023/01/21 01:30:15;;;;;;;65.43;35.75;;;;;;;;;;5050360;28;20112;-63
2023/01/21 01:32:42;;;;;;;64.55;38.15;;;;;;;;;;5050007;28;20360;-67
2023/01/21 01:35:08;;;;;;;50.72;33.45;;;;;;;;;;5050564;28;20021;-63
2023/01/21 01:37:34;;;;;;;69.95;43.45;;;;;;;;;;5050216;28;20083;-63
2023/01/21 01:40:00;;;;;;;71.82;40.63;;;;;;;;;;5050181;28;20025;-64
2023/01/21 01:42:26;;;;;;;61.65;38.70;;;;;;;;;;5050059;28;20472;-67
2023/01/21 01:44:52;;;;;;;68.00;43.42;;;;;;;;;;5049789;28;20045;-64
2023/01/21 01:47:18;;;;;;;58.83;35.00;;;;;;;;;;5049992;28;20033;-63
2023/01/21 01:49:45;;;;;;;59.45;35.15;;;102.50;2227.20;;;;;;5050186;28;20040;-62
2023/01/21 01:52:12;;;;;;;61.15;37.50;;;102.60;2227.20;;;;;;5049848;28;20142;-68
2023/01/21 01:54:45;;;;;;;67.03;40.67;;;102.70;2227.20;;;;;;5049918;28;20025;-64
2023/01/21 01:57:13;;;;;;;69.85;46.40;;;102.60;2227.20;;;;;;5049863;28;20040;-63
2023/01/21 01:59:41;;;;;;;71.88;45.30;;;102.80;2227.20;;;;;;5049872;28;20059;-63
2023/01/21 02:02:10;;;;;;;57.13;39.13;;;102.80;2227.20;;;;;;5049689;28;20483;-66
2023/01/21 02:04:49;;;;;;;68.43;44.45;;;102.70;2227.20;;;;;;5049924;28;20056;-63
2023/01/21 02:07:18;;;;;;;68.45;41.60;;;102.70;2227.20;;;;;;5050061;28;20017;-64
2023/01/21 02:09:43;;;;;;;68.72;39.42;;;102.80;2227.20;;;;;;5050004;28;20483;-63
2023/01/21 02:12:09;;;;;;;69.78;44.42;;;102.80;2227.20;;;;;;5049365;28;20033;-63
2023/01/21 02:14:41;;;;;;;68.97;38.45;;;102.80;2227.20;;;;;;5052298;28;20032;-62
2023/01/21 02:17:38;;;;;;;79.97;44.30;;;102.70;2227.20;;;;;;5053364;28;20032;-66
2023/01/21 02:20:09;;;;;;;74.60;42.13;;;102.80;2227.20;;;;;;5053383;28;20021;-62
2023/01/21 02:23:17;;;;;;;74.57;42.65;;;102.70;2227.20;;;;;;5053301;28;20064;-67
2023/01/21 02:26:06;;;;;;;70.28;40.05;;;102.70;2227.20;;;;;;4972286;28;20055;-62
2023/01/21 02:28:59;;;;;;;63.40;39.88;;;102.70;2227.20;;;;;;4972008;28;20035;-63
2023/01/21 02:32:15;;;;;;;64.57;37.83;;;102.80;2227.20;;;;;;4972093;28;20121;-66
2023/01/21 02:34:52;;;;;;;75.30;43.75;;;102.80;2227.20;;;;;;4980154;28;20260;-63
2023/01/21 02:37:33;;;;;;;81.00;46.53;;;102.70;2227.20;;;;;;4972343;28;20470;-62
2023/01/21 02:40:18;;;;;;;67.45;38.15;;;102.70;2227.20;;;;;;4972301;28;20223;-66
2023/01/21 02:42:59;;;;;;;74.30;42.00;;;102.80;2227.20;;;;;;4971953;28;20481;-65
2023/01/21 02:45:42;;;;;;;62.65;39.15;;;102.80;2227.20;;;;;;5006744;28;20252;-62
2023/01/21 02:48:16;;;;;;;69.30;39.85;;;102.50;2227.20;;;;;;5010775;28;20065;-64
2023/01/21 02:50:49;;;;;;;71.70;39.75;;;77.70;2227.20;;;;;;5010824;28;20030;-64
2023/01/21 02:53:27;;;;;;;86.10;44.40;;;102.50;2227.20;;;;;;5010944;28;20464;-67
2023/01/21 02:55:53;;;;;;;73.07;40.67;;;77.70;2227.20;;;;;;5010586;28;20045;-65
2023/01/21 02:58:23;;;;;;;80.30;42.92;;;102.40;2227.20;;;;;;5010623;28;20442;-62
2023/01/21 03:01:06;;;;;;;81.28;44.10;;;102.40;2227.20;;;;;;5010394;28;20025;-63
2023/01/21 03:03:35;;;;;;;87.40;47.75;;;102.50;2227.20;;;;;;5062697;28;20059;-65
2023/01/21 03:06:29;;;;;;;81.90;43.78;;;102.60;2227.20;;;;;;5072483;28;20024;-63
2023/01/21 03:09:20;;;;;;;112.93;49.92;;;102.80;2227.20;;;;;;5072388;28;20367;-66
2023/01/21 03:12:07;;;;;;;72.00;39.88;;;102.60;2227.20;;;;;;5072224;28;20028;-63
2023/01/21 03:17:48;;;;;;;72.90;40.30;;;102.80;2227.20;;;;;;5072223;28;20503;-63
2023/01/21 03:20:25;;;;;;;57.78;36.10;;;102.70;2227.20;;;;;;5072170;28;20035;-66
2023/01/21 03:22:56;;;;;;;67.65;38.78;;;102.60;2227.20;;;;;;5072092;28;20021;-63
2023/01/21 03:25:25;;;;;;;65.35;37.53;;;102.50;2227.20;;;;;;5071680;28;20028;-65
2023/01/21 03:27:52;;;;;;;84.30;46.92;;;102.60;2227.20;;;;;;5071749;28;20094;-63
2023/01/21 03:30:21;;;;;;;64.50;40.05;;;102.60;2227.20;;;;;;5072091;28;21054;-64
2023/01/21 03:32:49;;;;;;;82.28;50.42;;;102.70;2227.20;;;;;;5072177;28;20025;-63
2023/01/21 03:35:28;;;;;;;70.60;44.67;;;102.70;2227.20;;;;;;5072121;28;20115;-66
2023/01/21 03:38:13;;;;;;;79.20;45.92;;;102.80;2227.20;;;;;;5071895;28;20074;-64
2023/01/21 03:41:07;;;;;;;64.13;37.78;;;102.80;2227.20;;;;;;5071296;28;20029;-63
2023/01/21 03:43:33;;;;;;;63.53;35.75;;;102.80;2227.20;;;;;;5009964;28;20602;-63
2023/01/21 03:46:19;;;;;;;75.20;44.42;;;102.50;2227.20;;;;;;5009955;28;20049;-63
2023/01/21 03:48:50;;;;;;;80.82;42.78;;;102.50;2227.20;;;;;;5009954;28;20440;-62
2023/01/21 03:51:21;;;;;;;65.75;37.67;;;102.50;2227.20;;;;;;5009695;28;20065;-67
2023/01/21 03:53:57;;;;;;;74.18;41.08;;;102.60;2227.20;;;;;;5009533;28;20033;-62
2023/01/21 03:56:24;;;;;;;66.55;39.67;;;102.70;2227.20;;;;;;5009588;28;20046;-63
2023/01/21 03:58:50;;;;;;;52.55;33.10;;;102.50;2227.20;;;;;;5009451;28;20021;-63
2023/01/21 04:01:15;;;;;;;51.47;32.60;;;102.40;2227.20;;;;;;5009635;28;20038;-68
2023/01/21 04:03:42;;;;;;;60.00;35.90;;;102.50;2227.20;;;;;;5009318;28;20104;-63
2023/01/21 04:06:20;;;;;;;60.95;35.05;;;102.50;2227.20;;;;;;5009685;28;20054;-63
2023/01/21 04:08:46;;;;;;;59.83;34.15;;;102.40;2227.20;;;;;;5009464;28;20050;-65
2023/01/21 04:11:11;;;;;;;66.03;39.13;;;102.40;2227.20;;;;;;5009150;28;20026;-63
2023/01/21 04:13:37;;;;;;;70.80;41.75;;;102.60;2227.20;;;;;;5009385;28;20061;-65
2023/01/21 04:16:04;;;;;;;67.82;38.72;;;102.50;2227.20;;;;;;5008695;28;20022;-63
2023/01/21 04:18:30;;;;;;;63.65;38.40;;;102.50;2227.20;;;;;;5008613;28;20034;-63
2023/01/21 04:20:55;;;;;;;76.18;40.90;;;102.50;2227.20;;;;;;5040229;28;20475;-66
2023/01/21 04:23:21;;;;;;;93.28;53.40;;;77.70;2227.20;;;;;;5061161;28;20053;-63
2023/01/21 04:25:48;;;;;;;73.32;45.63;;;102.40;2227.20;;;;;;5059701;28;20063;-63
2023/01/21 04:28:13;;;;;;;93.15;52.65;;;102.50;2227.20;;;;;;5061308;28;20052;-63
2023/01/21 04:30:39;;;;;;;74.47;44.85;;;102.40;2227.20;;;;;;5063799;28;20094;-64
2023/01/21 04:33:05;;;;;;;84.47;45.03;;;102.50;2227.20;;;;;;5070917;28;20099;-62
2023/01/21 04:35:30;;;;;;;147.35;62.72;;;102.50;2227.20;;;;;;5070632;28;20028;-64
2023/01/21 04:37:56;;;;;;;72.80;41.95;;;102.50;2227.20;;;;;;5070410;28;20027;-65
2023/01/21 04:40:22;;;;;;;87.32;43.30;;;77.70;2227.20;;;;;;5070629;28;20021;-66
2023/01/21 04:42:47;;;;;;;71.90;39.15;;;77.60;2227.20;;;;;;5071072;28;20033;-66
2023/01/21 04:45:13;;;;;;;59.00;34.53;;;77.60;2227.20;;;;;;5054190;28;20103;-65
2023/01/21 04:47:43;;;;;;;81.30;43.65;;;77.60;2227.20;;;;;;5050760;28;20112;-66
2023/01/21 04:50:10;;;;;;;66.70;38.13;;;77.60;2227.20;;;;;;5050637;28;20112;-62
2023/01/21 04:52:36;;;;;;;65.40;39.90;;;77.40;2227.20;;;;;;5050965;28;20024;-62
2023/01/21 04:55:02;;;;;;;64.40;35.50;;;77.70;2227.20;;;;;;5050608;28;20025;-62
2023/01/21 04:57:28;;;;;;;69.82;38.85;;;;;;;;;;5050712;28;20051;-67
2023/01/21 04:59:54;;;;;;;69.82;38.28;;;77.70;2227.20;;;;;;5050666;28;20428;-66
2023/01/21 05:02:20;;;;;;;62.15;33.72;;;77.60;2227.20;;;;;;5050438;28;20029;-63
2023/01/21 05:04:45;;;;;;;60.88;36.67;;;102.50;2227.20;;;;;;5050580;28;20471;-66
2023/01/21 05:07:12;;;;;;;60.53;37.00;;;77.60;2227.20;;;;;;5050745;28;20031;-63
2023/01/21 05:09:37;;;;;;;87.03;45.78;;;77.60;2227.20;;;;;;5050792;28;20040;-63
2023/01/21 05:12:04;;;;;;;77.57;40.17;;;77.50;2227.20;;;;;;5050122;28;20562;-63
2023/01/21 05:14:29;;;;;;;67.50;40.92;;;77.50;2227.20;;;;;;5043616;28;20120;-64
2023/01/21 05:16:55;;;;;;;57.63;34.25;;;77.50;2227.20;;;;;;5030554;28;20060;-62
2023/01/21 05:19:21;;;;;;;68.07;38.50;;;77.50;2227.20;;;;;;5030398;28;20113;-63
2023/01/21 05:21:46;;;;;;;69.80;40.60;;;77.30;2227.20;;;;;;5031034;28;20033;-67
2023/01/21 05:24:12;;;;;;;60.95;36.17;;;;;;;;;;5030878;28;20116;-62
2023/01/21 05:26:38;;;;;;;49.38;31.45;;;;;;;;;;5030785;28;20108;-68
2023/01/21 05:29:04;;;;;;;62.47;33.63;;;;;;;;;;5030340;28;20049;-67
2023/01/21 05:31:30;;;;;;;47.38;28.77;;;;;;;;;;5030358;28;20092;-68
2023/01/21 05:33:57;;;;;;;58.10;34.70;;;;;;;;;;5031069;28;20432;-67
2023/01/21 05:36:23;;;;;;;52.10;35.40;;;;;;;;;;5031642;28;20117;-65
2023/01/21 05:38:49;;;;;;;52.70;35.33;;;;;;;;;;5031804;28;20064;-63
2023/01/21 05:41:15;;;;;;;66.57;43.50;;;77.50;2227.20;;;;;;5031755;28;20036;-63
2023/01/21 05:43:40;;;;;;;61.85;39.50;;;77.40;2227.20;;;;;;5031565;28;20053;-65
2023/01/21 05:46:06;;;;;;;69.10;41.83;;;77.70;2227.20;;;;;;5031470;28;20079;-67
2023/01/21 05:48:32;;;;;;;63.00;41.92;;;77.60;2227.20;;;;;;5033538;28;20033;-64
2023/01/21 05:50:57;;;;;;;66.35;43.15;;;77.60;2227.20;;;;;;5035046;28;21049;-66
2023/01/21 05:53:24;;;;;;;69.63;43.30;;;77.40;2227.20;;;;;;5035286;28;20034;-64
2023/01/21 05:55:56;;;;;;;64.07;41.22;;;77.50;2227.20;;;;;;5035072;28;20025;-63
2023/01/21 05:58:23;;;;;;;72.00;49.13;;;77.60;2227.20;;;;;;5034528;28;20128;-68
2023/01/21 06:00:49;;;;;;;65.40;38.25;;;77.50;2227.20;;;;;;5034039;28;20026;-66
2023/01/21 06:03:16;;;;;;;59.15;35.80;;;77.40;2227.20;;;;;;5035490;28;20543;-68
2023/01/21 06:05:42;;;;;;;62.00;39.90;;;77.50;2227.20;;;;;;5035542;28;20028;-64
2023/01/21 06:08:08;;;;;;;83.72;54.20;;;77.60;2227.20;;;;;;5035550;28;20120;-67
2023/01/21 06:10:34;;;;;;;59.50;39.72;;;77.60;2227.20;;;;;;5035375;28;20510;-68
2023/01/21 06:13:00;;;;;;;65.20;42.88;;;77.50;2227.20;;;;;;5035180;28;20057;-63
2023/01/21 06:15:26;;;;;;;60.63;41.45;;;77.60;2227.20;;;;;;5034911;28;20033;-68
2023/01/21 06:17:52;;;;;;;61.15;39.63;;;77.60;2227.20;;;;;;5034385;28;20025;-65
2023/01/21 06:20:18;;;;;;;75.90;48.92;;;77.50;2227.20;;;;;;5034938;28;20017;-64
2023/01/21 06:22:44;;;;;;;64.50;44.15;;;77.50;2227.20;;;;;;5034653;28;20499;-68
2023/01/21 06:25:10;;;;;;;54.38;32.45;;;77.70;2227.20;;;;;;5034636;28;20022;-67
2023/01/21 06:27:37;;;;;;;51.83;33.90;;;77.70;2227.20;;;;;;5034626;28;20037;-63
2023/01/21 06:30:06;;;;;;;42.72;28.55;;;102.40;2227.20;;;;;;5034035;28;20136;-64
2023/01/21 06:32:33;;;;;;;39.28;26.63;;;102.40;2227.20;;;;;;5033830;28;20029;-64
2023/01/21 06:34:58;;;;;;;53.13;32.28;;;102.40;2227.20;;;;;;5033907;28;20021;-63
2023/01/21 06:37:24;;;;;;;45.38;31.48;;;77.70;2227.20;;;;;;5034758;28;20037;-69
2023/01/21 06:39:50;;;;;;;55.65;37.22;;;77.60;2227.20;;;;;;5034761;28;20029;-66
2023/01/21 06:42:16;;;;;;;119.78;42.50;;;77.60;2227.20;;;;;;5034589;28;20120;-68
2023/01/21 06:44:43;;;;;;;55.13;34.45;;;77.70;2227.20;;;;;;5033893;28;20112;-63
2023/01/21 06:47:09;;;;;;;41.88;25.48;;;77.70;2227.20;;;;;;5045198;28;20043;-64
2023/01/21 06:49:35;;;;;;;38.80;27.00;;;77.50;2227.20;;;;;;5052925;28;20037;-67
2023/01/21 06:52:01;;;;;;;49.67;31.00;;;77.40;2227.20;;;;;;5052802;28;20050;-67
2023/01/21 06:54:26;;;;;;;48.20;32.10;;;77.40;2227.20;;;;;;5053224;28;20459;-69
2023/01/21 06:56:52;;;;;;;50.90;33.42;;;77.50;2227.20;;;;;;5052363;28;20068;-64
2023/01/21 06:59:18;;;;;;;62.42;39.38;;;77.60;2227.20;;;;;;5052624;28;20502;-67
2023/01/21 07:01:44;;;;;;;73.25;46.67;;;77.50;2227.20;;;;;;5052879;28;20536;-64
2023/01/21 07:04:09;;;;;;;121.63;64.93;;;77.60;2227.20;;;;;;5057408;28;20043;-66
2023/01/21 07:06:36;;;;;;;91.13;52.08;;;77.70;2227.20;;;;;;5053621;28;20112;-63
2023/01/21 07:09:02;;;;;;;66.32;40.40;;;77.70;2227.20;;;;;;5052602;28;20111;-63
2023/01/21 07:11:29;;;;;;;75.93;47.38;;;102.40;2227.20;;;;;;5056328;28;20407;-67
2023/01/21 07:13:54;;;;;;;84.55;56.00;;;102.50;2227.20;;;;;;5063787;28;20028;-62
2023/01/21 07:16:20;;;;;;;77.25;49.13;;;102.40;2227.20;;;;;;5054082;28;20083;-63
2023/01/21 07:18:46;;;;;;;76.72;52.92;;;77.60;2227.20;;;;;;5056600;28;20025;-69
2023/01/21 07:21:11;;;;;;;85.68;59.88;;;102.40;2227.20;;;;;;5060015;28;20090;-62
2023/01/21 07:23:37;;;;;;;374.70;231.73;;;102.40;2227.20;;;;;;5053111;28;20025;-68
2023/01/21 07:26:03;;;;;;;229.20;124.68;;;77.70;2227.20;;;;;;5057330;28;20092;-71
2023/01/21 07:28:29;;;;;;;122.68;72.53;;;102.40;2227.20;;;;;;5057299;28;20479;-64
2023/01/21 07:30:58;;;;;;;77.72;50.65;;;77.70;2227.20;;;;;;5056964;28;20043;-69
2023/01/21 07:33:24;;;;;;;49.88;34.00;;;102.40;2227.20;;;;;;5055984;28;20379;-67
2023/01/21 07:35:50;;;;;;;78.90;56.05;;;77.70;2227.20;;;;;;5057085;28;20025;-66
2023/01/21 07:38:16;;;;;;;64.10;42.83;;;77.70;2227.20;;;;;;5055827;28;20024;-65
2023/01/21 07:40:41;;;;;;;71.65;52.05;;;77.60;2227.20;;;;;;5056945;28;20036;-70
2023/01/21 07:43:08;;;;;;;208.52;170.68;;;102.40;2227.20;;;;;;5058220;28;20033;-64
2023/01/21 07:45:34;;;;;;;99.40;70.68;;;102.40;2227.20;;;;;;5054837;28;20100;-63
2023/01/21 07:47:59;;;;;;;94.05;63.88;;;102.40;2227.20;;;;;;5057288;28;20052;-75
2023/01/21 07:50:25;;;;;;;78.07;52.67;;;102.50;2227.20;;;;;;5054786;28;20032;-67
2023/01/21 07:52:54;;;;;;;70.97;49.65;;;102.50;2227.20;;;;;;5055739;28;20086;-74
2023/01/21 07:55:20;;;;;;;72.45;40.17;;;102.60;2227.20;;;;;;5056437;28;20061;-66
2023/01/21 07:57:45;;;;;;;69.65;45.53;;;102.70;2227.20;;;;;;5053839;28;20025;-64
2023/01/21 08:00:12;;;;;;;59.72;40.38;;;102.70;2227.20;;;;;;5057335;28;20025;-66
2023/01/21 08:02:38;;;;;;;60.28;40.58;;;102.60;2227.20;;;;;;5054584;28;20059;-63
2023/01/21 08:05:05;;;;;;;67.05;42.53;;;102.60;2227.20;;;;;;5055140;28;20029;-66
2023/01/21 08:07:31;;;;;;;65.25;39.97;;;102.60;2227.20;;;;;;5053955;28;20085;-65
2023/01/21 08:09:57;;;;;;;179.45;122.75;;;102.40;2227.20;;;;;;5053321;28;20064;-67
2023/01/21 08:12:23;;;;;;;61.53;40.20;;;77.70;2227.20;;;;;;5052447;28;20028;-69
2023/01/21 08:14:48;;;;;;;99.70;64.90;;;77.70;2227.20;;;;;;5055025;28;20501;-66
2023/01/21 08:17:14;;;;;;;66.85;42.17;;;102.50;2227.20;;;;;;5055638;28;20064;-72
2023/01/21 08:19:40;;;;;;;58.30;36.80;;;102.40;2227.20;;;;;;5055786;28;20037;-66
2023/01/21 08:22:06;;;;;;;56.30;34.45;;;102.50;2227.20;;;;;;5053348;28;20108;-68
2023/01/21 08:24:31;;;;;;;49.15;30.90;;;102.60;2227.20;;;;;;5053277;28;20079;-65
2023/01/21 08:26:58;;;;;;;63.38;40.63;;;102.70;2227.20;;;;;;5053829;28;20033;-67
2023/01/21 08:29:24;;;;;;;59.63;39.83;;;102.60;2227.20;;;;;;5054712;28;20033;-66
2023/01/21 08:31:51;;;;;;;68.20;41.78;;;102.60;2227.20;;;;;;5053358;28;20017;-65
2023/01/21 08:34:17;;;;;;;57.88;34.60;;;102.60;2227.20;;;;;;5050976;28;20439;-63
2023/01/21 08:36:43;;;;;;;91.50;56.28;;;102.50;2227.20;;;;;;5050648;28;20379;-68
2023/01/21 08:39:16;;;;;;;92.70;54.00;;;102.60;2227.20;;;;;;5050451;28;20025;-62
2023/01/21 08:41:43;;;;;;;;;;;102.70;2227.20;;;;;;5049993;28;20029;-63
2023/01/21 08:44:09;;;;;;;102.65;59.90;;;102.70;2227.20;;;;;;5047197;28;20341;-64
2023/01/21 08:46:35;;;;;;;65.38;39.92;;;102.90;2227.20;;;;;;5050551;28;20032;-62
2023/01/21 08:49:00;;;;;;;55.00;34.58;;;102.80;2227.20;;;;;;5050589;28;20036;-62
2023/01/21 08:51:26;;;;;;;73.20;49.00;;;102.70;2227.20;;;;;;5050600;28;20021;-68
2023/01/21 08:53:52;;;;;;;78.50;48.78;;;102.50;2227.20;;;;;;5050575;28;20021;-63
2023/01/21 08:56:18;;;;;;;69.60;45.22;;;102.50;2227.20;;;;;;5050689;28;20025;-67
2023/01/21 08:58:44;;;;;;;80.65;55.50;;;102.70;2227.20;;;;;;5050671;28;20082;-62
2023/01/21 09:01:14;;;;;;;85.03;55.63;;;102.90;2227.20;;;;;;5050821;28;20071;-64
2023/01/21 09:03:40;;;;;;;63.58;38.47;;;103.10;2227.20;;;;;;5050964;28;20106;-63
2023/01/21 09:06:07;;;;;;;73.28;43.58;;;103.20;2227.20;;;;;;5050552;28;20028;-63
2023/01/21 09:08:32;;;;;;;75.88;50.22;;;103.00;2227.20;;;;;;5049591;28;20091;-64
2023/01/21 09:10:59;;;;;;;70.10;43.25;;;103.10;2227.20;;;;;;5049651;28;20048;-61
2023/01/21 09:13:25;;;;;;;70.40;45.83;;;103.10;2227.20;;;;;;5050247;28;20100;-59
2023/01/21 09:15:51;;;;;;;73.35;44.00;;;103.20;2227.20;;;;;;5050201;28;20064;-61
2023/01/21 09:18:17;;;;;;;69.43;43.00;;;103.10;2227.20;;;;;;5050447;28;20044;-61
2023/01/21 09:20:42;;;;;;;86.90;53.53;;;102.90;2227.20;;;;;;5050212;28;20064;-61
2023/01/21 09:23:22;;;;;;;91.18;57.97;;;103.20;2227.20;;;;;;5052008;28;20055;-62
2023/01/21 09:25:52;;;;;;;93.80;60.20;;;103.30;2227.20;;;;;;5054609;28;20060;-60
2023/01/21 09:28:18;;;;;;;90.20;59.92;;;102.90;2227.20;;;;;;5036228;28;20045;-60
2023/01/21 09:30:44;;;;;;;87.90;50.88;;;102.90;2227.20;;;;;;5053163;28;20381;-62
2023/01/21 09:33:11;;;;;;;76.55;49.20;;;103.00;2227.20;;;;;;5052114;28;20539;-60
2023/01/21 09:35:37;;;;;;;85.63;53.92;;;102.90;2227.20;;;;;;5050463;28;20463;-60
2023/01/21 09:38:02;;;;;;;84.80;55.42;;;102.80;2227.20;;;;;;5051325;28;20013;-59
2023/01/21 09:40:28;;;;;;;122.47;74.40;;;102.80;2227.20;;;;;;5051521;28;20118;-59
2023/01/21 09:42:54;;;;;;;174.07;106.85;;;102.80;2227.20;;;;;;5051460;28;20024;-60
2023/01/21 09:45:21;;;;;;;161.80;105.90;;;102.70;2227.20;;;;;;5051167;28;20133;-60
2023/01/21 09:47:49;;;;;;;126.03;82.30;;;102.70;2227.20;;;;;;5049796;28;20020;-59
2023/01/21 09:50:19;;;;;;;119.38;69.18;;;102.70;2227.20;;;;;;5051235;28;20450;-59
2023/01/21 09:52:47;;;;;;;143.32;88.78;;;102.40;2227.20;;;;;;5051048;28;20021;-59
2023/01/21 09:55:16;;;;;;;141.38;89.82;;;102.50;2227.20;;;;;;5051309;28;20029;-59
2023/01/21 09:58:29;;;;;;;123.28;77.82;;;102.60;2227.20;;;;;;5051216;28;20017;-59
2023/01/21 10:01:12;;;;;;;115.13;72.70;;;102.70;2227.20;;;;;;4958595;28;20526;-59
2023/01/21 10:03:58;;;;;;;131.40;82.15;;;102.90;2227.20;;;;;;4967289;28;20139;-61
2023/01/21 10:06:26;;;;;;;125.25;74.47;;;102.60;2227.20;;;;;;4966712;28;20227;-60
2023/01/21 10:09:04;;;;;;;95.07;55.58;;;102.50;2227.20;;;;;;4955557;28;20046;-60
2023/01/21 10:11:48;;;;;;;174.23;103.25;;;102.60;2227.20;;;;;;4951740;28;20181;-59
2023/01/21 10:14:32;;;;;;;153.68;90.35;;;102.70;2227.20;;;;;;4968687;28;20034;-60
2023/01/21 10:17:17;;;;;;;116.72;69.03;;;102.90;2227.20;;;;;;4967476;28;20470;-58
2023/01/21 10:19:54;;;;;;;72.25;43.13;;;103.00;2227.20;;;;;;4959216;28;20035;-59
2023/01/21 10:22:24;;;;;;;82.18;48.60;;;102.70;2227.20;;;;;;4953999;28;20029;-61
2023/01/21 10:25:00;;;;;;;91.22;52.75;;;102.50;2227.20;;;;;;4966784;28;20110;-60
2023/01/21 10:27:27;;;;;;;98.40;59.20;;;102.40;2227.20;;;;;;4960958;28;20047;-59
2023/01/21 10:29:57;;;;;;;99.25;64.07;;;102.70;2227.20;;;;;;4960247;28;20050;-59
2023/01/21 10:32:25;;;;;;;119.78;68.95;;;102.80;2227.20;;;;;;4959367;28;20086;-59
2023/01/21 10:34:54;;;;;;;93.90;59.88;;;102.80;2227.20;;;;;;4956446;28;20030;-60
2023/01/21 10:37:19;;;;;;;80.30;47.45;;;102.60;2227.20;;;;;;5028177;28;20040;-61
2023/01/21 10:40:16;;;;;;;102.03;61.88;;;102.60;2227.20;;;;;;5033919;28;20022;-61
2023/01/21 10:43:04;;;;;;;218.60;156.00;;;102.90;2227.20;;;;;;5040753;28;20029;-60
2023/01/21 10:45:56;;;;;;;114.78;70.65;;;102.80;2227.20;;;;;;5049636;28;20041;-60
2023/01/21 10:48:52;;;;;;;97.47;52.33;;;102.90;2227.20;;;;;;5051639;28;20430;-58
2023/01/21 10:51:43;;;;;;;95.55;57.47;;;102.80;2227.20;;;;;;5052544;28;20032;-58
2023/01/21 10:54:12;;;;;;;124.32;71.65;;;102.90;2227.20;;;;;;5051644;28;20029;-58
2023/01/21 10:56:41;;;;;;;89.03;56.83;;;102.60;2227.20;;;;;;5051782;28;20444;-57
2023/01/21 10:59:10;;;;;;;96.03;62.20;;;102.50;2227.20;;;;;;5051996;28;20467;-59
2023/01/21 11:01:40;;;;;;;93.35;55.70;;;102.60;2227.20;;;;;;5052095;28;20032;-58
2023/01/21 11:04:20;;;;;;;86.60;50.30;;;102.80;2227.20;;;;;;5050654;28;20072;-58
2023/01/21 11:06:57;;;;;;;96.85;55.63;;;102.90;2227.20;;;;;;5041315;28;20068;-58
2023/01/21 11:09:28;;;;;;;90.60;52.67;;;103.00;2227.20;;;;;;5040704;28;20041;-59
2023/01/21 11:11:54;;;;;;;93.75;55.97;;;103.00;2227.20;;;;;;5036053;28;20376;-61
2023/01/21 11:14:19;;;;;;;105.15;55.75;;;103.10;2227.20;;;;;;5039648;28;20041;-61
2023/01/21 11:16:48;;;;;;;103.97;57.40;;;102.90;2227.20;;;;;;5042203;28;20029;-61
2023/01/21 11:19:25;;;;;;;104.75;55.30;;;103.00;2227.20;;;;;;5039582;28;20417;-58
2023/01/21 11:21:59;;;;;;;99.90;53.45;;;102.80;2227.20;;;;;;5043068;28;20040;-58
2023/01/21 11:24:25;;;;;;;133.43;68.50;;;102.70;2227.20;;;;;;5050485;28;20064;-61
2023/01/21 11:26:53;;;;;;;135.55;59.88;;;103.10;2227.20;;;;;;5052181;28;20050;-60
2023/01/21 11:29:21;;;;;;;109.68;60.40;;;103.10;2227.20;;;;;;5051703;28;20070;-57
2023/01/21 11:31:50;;;;;;;100.82;61.65;;;103.20;2227.20;;;;;;5052531;28;20044;-60
2023/01/21 11:34:16;;;;;;;126.10;80.40;;;102.80;2227.20;;;;;;5051714;28;20036;-59
2023/01/21 11:37:04;;;;;;;165.43;94.82;;;103.20;2227.20;;;;;;5051908;28;20021;-58
2023/01/21 11:39:37;;;;;;;158.88;96.03;;;103.00;2227.20;;;;;;5051656;28;20025;-60
2023/01/21 11:42:17;;;;;;;134.73;73.03;;;103.10;2227.20;;;;;;5051575;28;20033;-59
2023/01/21 11:44:51;;;;;;;155.32;91.82;;;103.30;2227.20;;;;;;5049798;28;20053;-58
2023/01/21 11:47:38;;;;;;;165.98;94.13;;;103.20;2227.20;;;;;;5049125;28;20048;-61
2023/01/21 11:50:21;;;;;;;138.25;52.08;;;103.20;2227.20;;;;;;5051297;28;20041;-63
2023/01/21 11:53:07;;;;;;;;;;;102.90;2227.20;;;;;;5052012;28;20021;-59
2023/01/21 11:55:41;;;;;;;80.20;37.35;;;103.00;2227.20;;;;;;5050432;28;19986;-60
2023/01/21 11:58:16;;;;;;;;;;;102.90;2227.20;;;;;;5050511;28;20352;-60
2023/01/21 12:00:45;;;;;;;117.05;54.90;;;103.10;2227.20;;;;;;5048467;28;19986;-59
2023/01/21 12:03:16;;;;;;;146.10;59.83;;;103.30;2227.20;;;;;;5049751;28;20032;-60
2023/01/21 12:05:46;;;;;;;120.40;57.90;;;103.20;2227.20;;;;;;5049647;28;20426;-60
2023/01/21 12:08:25;;;;;;;121.90;57.15;;;102.90;2227.20;;;;;;5049685;28;20174;-61
2023/01/21 12:10:54;;;;;;;93.78;51.42;;;103.00;2227.20;;;;;;5050442;28;20029;-61
2023/01/21 12:13:35;;;;;;;107.10;52.97;;;102.90;2227.20;;;;;;5048179;28;20032;-60
2023/01/21 12:16:12;;;;;;;114.05;53.15;;;103.00;2227.20;;;;;;5050916;28;20025;-60
2023/01/21 12:19:15;;;;;;;126.10;78.45;;;103.00;2227.20;;;;;;5051039;28;20025;-60
2023/01/21 12:22:05;;;;;;;152.27;67.95;;;103.00;2227.20;;;;;;5050804;28;20033;-61
2023/01/21 12:25:02;;;;;;;95.25;54.28;;;102.90;2227.20;;;;;;5050870;28;20535;-62
2023/01/21 12:28:04;;;;;;;138.50;60.17;;;103.00;2227.20;;;;;;5050797;28;20029;-61
2023/01/21 12:30:33;;;;;;;100.88;54.22;;;103.00;2227.20;;;;;;5050706;28;20075;-60
2023/01/21 12:33:17;;;;;;;89.78;47.53;;;103.30;2227.20;;;;;;5050701;28;20376;-61
2023/01/21 12:35:51;;;;;;;97.03;51.75;;;103.30;2227.20;;;;;;5050616;28;20025;-59
2023/01/21 12:38:37;;;;;;;110.88;66.80;;;128.00;2252.80;;;;;;5050736;28;20072;-59
2023/01/21 12:41:15;;;;;;;83.53;49.22;;;103.20;2227.20;;;;;;5050476;28;20463;-60